Latest Weather Observations for Armidale Airport

IDN60801

Issued at 5:32 am EDT Friday 24 November 2017 (issued every 30 minutes, with the page automatically refreshed every 10 minutes)

About weather observations | Map of weather stations | Latest weather observations for NSW | Other Formats
Station Details ID: 056238 Name: ARMIDALE AIRPORT AWS Lat: -30.53 Lon: 151.62 Height: 1079.0 m
Data from the previous 72 hours. | See also: Recent months at Armidale Airport
Date/Time
EDT
Temp
°C
App
Temp
°C
Dew
Point
°C
Rel
Hum
%
Delta-T
°C
Wind Press
QNH
hPa
Press
MSL
hPa
Rain since
9am
mm
Dir  Spd
km/h
Gust
km/h
Spd
kts
Gust
kts
24/05:30am 8.0 6.7 7.7 98 0.2 ENE 4 7 2 4 1019.3 1014.8 0.6
24/05:00am 7.8 5.8 7.2 96 0.3 ENE 7 9 4 5 1018.9 1014.5 0.6
24/04:48am 8.7 6.6 8.3 97 0.2 ENE 9 9 5 5 1019.0 1014.6 0.6
24/04:30am 9.2 7.2 8.7 97 0.3 E 9 11 5 6 1018.9 1014.5 0.6
24/04:00am 9.9 7.7 9.4 97 0.3 E 11 13 6 7 1018.8 1014.3 0.6
24/03:30am 10.2 7.7 9.7 97 0.3 E 13 15 7 8 1018.8 1014.3 0.6
24/03:00am 10.5 7.7 10.0 97 0.3 ENE 15 17 8 9 1018.9 1014.5 0.6
24/02:30am 10.7 7.6 10.4 98 0.2 ENE 17 19 9 10 1019.1 1014.7 0.6
24/02:00am 10.3 7.4 9.8 97 0.3 ENE 15 17 8 9 1019.4 1014.9 0.6
24/01:30am 10.2 7.3 9.7 97 0.3 E 15 17 8 9 1019.6 1015.1 0.6
24/01:00am 10.1 6.8 9.5 96 0.3 ENE 17 19 9 10 1019.8 1015.4 0.6
24/12:30am 10.5 7.6 9.7 95 0.4 E 15 17 8 9 1019.9 1015.5 0.6
24/12:00am 10.6 8.0 9.5 93 0.6 E 13 17 7 9 1020.0 1015.6 0.6
 
Date/Time
EDT
Temp
°C
App
Temp
°C
Dew
Point
°C
Rel
Hum
%
Delta-T
°C
Wind Press
QNH
hPa
Press
MSL
hPa
Rain since
9am
mm
Dir  Spd
km/h
Gust
km/h
Spd
kts
Gust
kts
23/11:30pm 10.7 7.4 9.5 92 0.6 E 17 19 9 10 1020.1 1015.7 0.6
23/11:00pm 11.1 8.3 9.9 92 0.6 ENE 15 19 8 10 1020.1 1015.7 0.6
23/10:30pm 10.9 8.3 9.3 90 0.8 NE 13 15 7 8 1019.9 1015.5 0.6
23/10:00pm 10.9 7.6 9.5 91 0.7 NE 17 17 9 9 1020.0 1015.6 0.6
23/09:30pm 11.0 8.5 9.6 91 0.7 NE 13 15 7 8 1019.9 1015.5 0.6
23/09:00pm 11.5 8.6 9.6 88 1.0 ENE 15 17 8 9 1019.9 1015.5 0.6
23/08:30pm 12.1 9.3 10.0 87 1.1 ENE 15 20 8 11 1019.8 1015.4 0.6
23/08:00pm 12.7 9.9 10.1 84 1.4 ENE 15 22 8 12 1019.4 1014.9 0.6
23/07:30pm 13.5 10.1 10.5 82 1.7 SSE 19 26 10 14 1019.0 1014.6 0.6
23/07:00pm 13.8 10.4 10.6 81 1.8 SSE 19 24 10 13 1018.6 1014.1 0.6
23/06:30pm 13.0 10.2 11.2 89 1.0 SSW 17 22 9 12 1019.0 1014.6 0.2
23/06:00pm 14.4 11.2 9.8 74 2.5 W 17 20 9 11 1018.5 1014.0 0.2
23/05:30pm 14.4 10.3 10.0 75 2.4 WNW 22 28 12 15 1017.9 1013.4 0.2
23/05:00pm 15.6 10.9 9.1 65 3.5 W 24 39 13 21 1018.3 1013.8 0.2
23/04:30pm 18.9 15.1 7.4 47 6.2 NNE 17 22 9 12 1017.3 1012.8 0.2
23/04:00pm 20.1 17.3 8.4 47 6.4 NE 13 20 7 11 1017.3 1012.8 0.2
23/03:30pm 20.3 16.3 8.9 48 6.3 NNE 20 32 11 17 1017.5 1013.0 0.2
23/03:00pm 20.2 16.8 7.6 44 6.8 NNE 15 20 8 11 1017.9 1013.4 0.2
23/02:30pm 20.3 16.9 9.2 49 6.2 NE 17 22 9 12 1018.1 1013.7 0.2
23/02:00pm 19.6 17.0 9.2 51 5.8 N 13 19 7 10 1018.5 1014.0 0.2
23/01:30pm 19.2 16.5 9.1 52 5.6 NNE 13 24 7 13 1018.7 1014.2 0.2
23/01:00pm 18.5 16.0 6.7 46 6.2 S 9 13 5 7 1019.1 1014.7 0.2
23/12:30pm 19.1 17.0 8.1 49 6.0 SSE 9 19 5 10 1019.5 1015.0 0.2
23/12:00pm 19.4 17.3 8.1 48 6.1 SW 9 17 5 9 1019.9 1015.5 0.2
23/11:30am 18.7 15.7 7.8 49 5.9 S 13 19 7 10 1020.0 1015.6 0.0
23/11:00am 17.9 15.6 7.6 51 5.5 ENE 9 17 5 9 1020.3 1015.8 0.0
23/10:30am 17.6 16.1 10.5 63 4.0 SE 9 15 5 8 1020.1 1015.7 0.0
23/10:00am 16.7 14.4 10.5 67 3.5 ENE 13 22 7 12 1020.1 1015.7 0.0
23/09:30am 15.5 13.0 9.6 68 3.2 NE 13 17 7 9 1020.3 1015.8 0.0
23/09:00am 14.3 12.6 9.7 74 2.5 NE 9 15 5 8 1020.1 1015.7 0.6
23/08:30am 13.0 10.8 9.3 78 2.0 NE 11 15 6 8 1020.0 1015.6 -
23/08:00am 11.8 9.9 9.2 84 1.4 ENE 9 13 5 7 1019.8 1015.4 -
23/07:30am 10.8 7.4 9.2 90 0.8 ENE 17 22 9 12 1019.5 1015.0 -
23/07:00am 10.1 6.9 10.0 99 0.1 ENE 17 20 9 11 1019.0 1014.6 -
23/06:30am 9.1 6.0 9.0 99 0.1 E 15 19 8 10 1018.9 1014.5 -
23/06:00am 8.5 4.9 8.4 99 0.1 E 17 20 9 11 1018.6 1014.1 -
23/05:30am 8.3 4.7 8.2 99 0.1 E 17 22 9 12 1017.9 1013.4 -
23/05:00am 8.5 4.9 8.4 99 0.1 E 17 19 9 10 1017.9 1013.4 -
23/04:30am 8.7 5.2 8.6 99 0.1 E 17 20 9 11 1017.8 1013.3 -
23/04:00am 8.8 5.3 8.7 99 0.1 E 17 20 9 11 1017.9 1013.4 -
23/03:30am 9.0 5.5 8.9 99 0.1 E 17 20 9 11 1018.0 1013.5 -
23/03:00am 9.0 5.9 8.9 99 0.1 E 15 20 8 11 1018.1 1013.7 0.0
23/02:31am 9.2 5.8 9.1 99 0.1 E 17 20 9 11 1018.4 1013.9 -
23/02:30am 9.2 5.8 9.1 99 0.1 E 17 20 9 11 1018.3 1013.8 -
23/02:12am 9.7 6.8 9.6 99 0.1 E 15 19 8 10 1018.5 1014.0 -
23/02:00am 9.7 6.4 9.6 99 0.1 E 17 20 9 11 1018.6 1014.1 -
23/01:30am 9.9 7.0 9.6 98 0.2 E 15 19 8 10 1018.7 1014.2 -
23/01:00am 10.1 7.2 9.5 96 0.3 E 15 19 8 10 1019.3 1014.8 -
23/12:30am 10.5 7.6 9.6 94 0.5 E 15 20 8 11 1019.6 1015.1 -
23/12:00am 10.6 7.0 9.7 94 0.5 E 19 20 10 11 1019.8 1015.4 -
 
Date/Time
EDT
Temp
°C
App
Temp
°C
Dew
Point
°C
Rel
Hum
%
Delta-T
°C
Wind Press
QNH
hPa
Press
MSL
hPa
Rain since
9am
mm
Dir  Spd
km/h
Gust
km/h
Spd
kts
Gust
kts
22/11:30pm 11.1 8.0 10.3 95 0.4 E 17 20 9 11 1020.3 1015.8 -
22/11:00pm 11.1 8.4 10.5 96 0.3 E 15 20 8 11 1020.1 1015.7 -
22/10:30pm 10.7 7.5 9.9 95 0.4 E 17 22 9 12 1020.1 1015.7 -
22/10:00pm 10.9 7.3 10.0 94 0.5 E 19 22 10 12 1020.1 1015.7 -
22/09:30pm 11.3 7.7 10.0 92 0.7 ESE 19 26 10 14 1020.0 1015.6 -
22/09:00pm 11.7 8.5 10.1 90 0.9 E 17 22 9 12 1019.9 1015.5 0.0
22/08:47pm 12.0 8.9 10.2 89 1.0 ESE 17 20 9 11 1019.9 1015.5 -
22/08:30pm 12.3 9.6 10.2 87 1.1 ESE 15 20 8 11 1019.8 1015.4 -
22/08:00pm 13.0 10.4 10.7 86 1.3 E 15 24 8 13 1019.5 1015.0 -
22/07:58pm 12.9 10.6 10.6 86 1.3 E 13 24 7 13 1019.5 1015.0 -
22/07:30pm 13.1 9.9 9.9 81 1.7 E 17 22 9 12 1019.1 1014.7 -
22/07:00pm 14.0 10.6 10.6 80 1.9 E 19 24 10 13 1019.0 1014.6 -
22/06:30pm 14.0 10.2 11.0 82 1.7 ENE 22 32 12 17 1018.8 1014.3 -
22/06:00pm 15.7 9.5 10.2 70 3.1 ENE 33 46 18 25 1018.5 1014.0 -
22/05:54pm 16.7 11.3 9.6 63 3.9 ENE 28 46 15 25 1018.4 1013.9 -
22/05:30pm 17.1 12.8 9.3 60 4.3 NE 22 30 12 16 1018.4 1013.9 -
22/05:00pm 18.4 13.8 9.5 56 4.9 ESE 24 33 13 18 1018.3 1013.8 -
22/04:30pm 17.8 13.7 8.6 55 5.0 ESE 20 32 11 17 1018.1 1013.7 -
22/04:00pm 18.7 15.2 8.9 53 5.4 SSE 17 26 9 14 1018.1 1013.7 -
22/03:30pm 17.8 14.0 9.2 57 4.7 SE 19 28 10 15 1018.4 1013.9 -
22/03:00pm 17.1 13.6 8.8 58 4.5 ESE 17 28 9 15 1018.7 1014.2 -
22/02:30pm 17.6 14.7 9.8 60 4.3 ESE 15 22 8 12 1019.1 1014.7 -
22/01:30pm 17.1 13.7 9.3 60 4.3 ESE 17 26 9 14 1020.1 1015.7 0.6
22/01:00pm 16.0 12.2 9.2 64 3.7 ESE 19 26 10 14 1020.5 1016.0 0.0
22/12:30pm 15.5 12.0 10.9 74 2.6 E 20 28 11 15 1020.7 1016.3 0.0
22/12:00pm 16.0 12.8 11.8 76 2.4 ESE 20 33 11 18 1020.8 1016.4 0.0
22/11:30am 16.1 12.4 11.5 74 2.6 ESE 22 32 12 17 1021.0 1016.6 0.0
22/11:00am 16.0 12.9 12.2 78 2.2 E 20 26 11 14 1021.3 1016.8 0.0
22/10:30am 15.5 11.1 10.5 72 2.8 ENE 24 32 13 17 1021.3 1016.8 0.0
22/10:00am 14.4 10.7 10.2 76 2.3 E 20 28 11 15 1021.4 1016.9 0.0
22/09:30am 15.3 11.0 10.7 74 2.6 E 24 33 13 18 1021.1 1016.7 0.0
22/09:07am 14.7 11.1 11.7 82 1.7 E 22 32 12 17 1021.4 1016.9 0.0
22/09:00am 13.5 9.9 10.5 82 1.7 E 20 28 11 15 1021.4 1016.9 0.2
22/08:30am 12.5 9.4 11.7 95 0.4 ESE 19 24 10 13 1021.5 1017.1 0.2
22/08:21am 11.5 8.6 10.9 96 0.3 ESE 17 20 9 11 1021.5 1017.1 0.2
22/08:00am 11.7 8.5 11.2 97 0.3 ESE 19 28 10 15 1021.3 1016.8 0.2
22/07:30am 10.8 7.5 10.8 100 0.0 E 19 26 10 14 1020.7 1016.3 0.2
22/07:00am 10.0 6.4 10.0 100 0.0 E 19 24 10 13 1020.5 1016.0 0.2
22/06:49am 9.7 6.1 9.7 100 0.0 E 19 24 10 13 1020.4 1015.9 0.2
22/06:30am 9.0 5.6 9.0 100 0.0 E 17 24 9 13 1020.4 1015.9 0.2
22/06:29am 9.0 5.6 9.0 100 0.0 E 17 24 9 13 1020.4 1015.9 0.2
22/06:07am 8.9 4.9 8.9 100 0.0 E 20 28 11 15 1020.3 1015.8 0.2
22/06:00am 8.8 5.3 8.8 100 0.0 E 17 22 9 12 1020.3 1015.8 0.2
22/05:30am 8.4 4.8 8.4 100 0.0 ENE 17 22 9 12 1020.0 1015.6 0.2
22/05:00am 8.8 4.9 8.8 100 0.0 E 19 24 10 13 1020.0 1015.6 0.2
22/04:30am 8.9 5.1 8.9 100 0.0 E 19 24 10 13 1020.0 1015.6 0.2
22/04:00am 9.1 5.3 9.1 100 0.0 E 19 24 10 13 1020.0 1015.6 0.2
22/03:40am 9.3 5.4 9.3 100 0.0 E 20 28 11 15 1020.3 1015.8 0.2
22/03:30am 9.4 5.5 9.4 100 0.0 E 20 28 11 15 1020.3 1015.8 0.2
22/03:00am 10.0 5.5 10.0 100 0.0 E 24 33 13 18 1020.3 1015.8 0.2
22/02:30am 10.2 5.7 10.2 100 0.0 E 24 32 13 17 1020.6 1016.2 0.2
22/02:00am 10.4 5.9 10.2 99 0.1 ESE 24 39 13 21 1020.8 1016.4 0.2
22/01:30am 10.6 7.1 10.3 98 0.2 ESE 19 26 10 14 1021.1 1016.7 0.2
22/01:09am 10.4 6.8 9.9 97 0.3 E 19 22 10 12 1021.4 1016.9 0.2
22/01:00am 10.1 6.4 9.6 97 0.3 E 19 24 10 13 1021.5 1017.1 0.2
22/12:30am 10.1 6.7 9.3 95 0.4 E 17 24 9 13 1021.8 1017.4 0.2
22/12:00am 10.4 7.1 9.6 95 0.4 E 17 22 9 12 1022.2 1017.9 0.2
 
Date/Time
EDT
Temp
°C
App
Temp
°C
Dew
Point
°C
Rel
Hum
%
Delta-T
°C
Wind Press
QNH
hPa
Press
MSL
hPa
Rain since
9am
mm
Dir  Spd
km/h
Gust
km/h
Spd
kts
Gust
kts
21/11:30pm 10.5 6.7 9.7 95 0.4 E 20 26 11 14 1022.4 1018.0 0.2
21/11:00pm 11.0 6.1 10.1 94 0.5 E 26 32 14 17 1022.6 1018.2 0.2
21/10:30pm 10.9 7.2 10.0 94 0.5 E 20 28 11 15 1022.8 1018.4 0.2
21/10:00pm 11.0 7.7 9.6 91 0.7 E 17 22 9 12 1022.9 1018.5 0.2
21/09:30pm 11.3 7.9 9.2 87 1.1 E 17 22 9 12 1022.9 1018.5 0.2
21/09:00pm 12.1 8.3 9.1 82 1.6 E 19 26 10 14 1022.7 1018.3 0.2
21/08:30pm 12.4 8.4 8.9 79 1.9 E 20 30 11 16 1022.5 1018.1 0.2
21/08:00pm 12.9 9.0 8.8 76 2.2 E 19 28 10 15 1022.1 1017.7 0.2
21/07:30pm 13.6 9.1 8.7 72 2.6 E 22 30 12 16 1021.9 1017.5 0.2
21/07:00pm 15.1 10.5 8.1 63 3.7 ESE 22 28 12 15 1021.7 1017.3 0.2
21/06:30pm 16.0 11.5 8.7 62 3.9 ESE 22 33 12 18 1021.4 1016.9 0.2
21/06:00pm 16.4 12.4 8.9 61 4.1 ESE 20 28 11 15 1021.4 1016.9 0.2
21/05:30pm 16.5 12.1 9.0 61 4.1 ESE 22 33 12 18 1021.4 1016.9 0.2
21/05:00pm 17.7 13.3 9.1 57 4.7 ESE 22 30 12 16 1021.4 1016.9 0.2
21/04:30pm 17.5 13.2 9.4 59 4.5 ESE 22 32 12 17 1021.5 1017.1 0.2
21/04:00pm 17.7 12.4 8.6 55 4.9 ESE 26 33 14 18 1021.6 1017.2 0.2
21/03:30pm 18.1 13.9 9.7 58 4.7 ESE 22 33 12 18 1021.8 1017.4 0.2
21/03:00pm 17.6 12.6 6.5 48 5.8 ESE 22 33 12 18 1022.0 1017.6 0.2
21/02:30pm 18.4 13.6 7.5 49 5.8 ESE 22 33 12 18 1022.4 1018.0 0.2
21/02:00pm 16.5 11.2 8.5 59 4.3 E 26 37 14 20 1022.8 1018.4 0.2
21/01:30pm 17.9 12.9 9.5 58 4.7 E 26 39 14 21 1022.8 1018.4 0.2
21/01:00pm 17.6 12.4 9.0 57 4.7 ESE 26 39 14 21 1023.0 1018.6 0.2
21/12:30pm 16.7 10.9 7.9 56 4.7 ESE 28 37 15 20 1023.4 1019.0 0.2
21/12:00pm 16.5 10.5 8.5 59 4.3 E 30 39 16 21 1023.7 1019.3 0.2
21/11:30am 16.3 9.4 8.8 61 4.1 E 35 46 19 25 1023.9 1019.6 0.0
21/11:00am 15.4 9.0 9.3 67 3.3 ESE 33 46 18 25 1023.9 1019.6 0.0
21/10:30am 14.4 8.7 9.8 74 2.5 ESE 30 41 16 22 1024.0 1019.7 0.0
21/10:00am 14.5 9.6 9.9 74 2.5 ESE 26 37 14 20 1023.9 1019.6 0.0
21/09:33am 14.0 8.3 11.2 83 1.6 E 32 43 17 23 1023.8 1019.4 0.0
21/09:30am 14.3 8.8 12.0 86 1.3 E 32 43 17 23 1023.8 1019.4 0.0
21/09:00am 13.2 8.2 12.1 93 0.6 E 30 37 16 20 1023.9 1019.6 0.6
21/08:30am 13.2 9.6 13.2 100 0.0 ESE 24 35 13 19 1023.9 1019.6 0.6
21/08:00am 11.4 7.7 11.4 100 0.0 ESE 22 30 12 16 1023.8 1019.4 0.6
21/07:30am 10.8 7.8 10.8 100 0.0 ESE 17 28 9 15 1023.7 1019.3 0.6
21/07:00am 10.4 7.3 10.4 100 0.0 ESE 17 26 9 14 1023.4 1019.0 0.6
21/06:30am 10.1 6.9 10.1 100 0.0 E 17 24 9 13 1023.0 1018.6 0.6
21/06:00am 10.1 6.6 10.1 100 0.0 E 19 26 10 14 1022.6 1018.2 0.6

Other Formats:

Comma delimited format used in spreadsheet applications
http://www.bom.gov.au/fwo/IDN60801/IDN60801.95773.axf

JavaScript Object Notation format (JSON) in row-major order
http://www.bom.gov.au/fwo/IDN60801/IDN60801.95773.json